Time;durP1;ratioP1;P1;durP2;ratioP2;P2;SDS_P1;SDS_P2;PMS_P1;PMS_P2;Temp;Humidity;BMP_temperature;BMP_pressure;BME280_temperature;BME280_humidity;BME280_pressure;Samples;Min_cycle;Max_cycle;Signal;HPM_P1;HPM_P2
2023/08/01 00:00:53;;;;;;;;;;;20.90;80.30;;;;;;5032128;28;19909;-57
2023/08/01 00:03:18;;;;;;;;;;;20.90;80.30;;;;;;5031704;28;19913;-54
2023/08/01 00:05:47;;;;;;;;;;;20.90;79.90;;;;;;5030863;28;19913;-53
2023/08/01 00:08:12;;;;;;;;;;;20.90;79.90;;;;;;5027567;28;19913;-53
2023/08/01 00:10:38;;;;;;;;;;;20.90;80.00;;;;;;5030319;28;19927;-55
2023/08/01 00:13:03;;;;;;;;;;;20.90;80.00;;;;;;5029820;28;19952;-53
2023/08/01 00:15:29;;;;;;;;;;;20.90;80.10;;;;;;5031878;28;20373;-53
2023/08/01 00:17:54;;;;;;;;;;;20.90;80.10;;;;;;5030855;28;20376;-53
2023/08/01 00:20:19;;;;;;;;;;;20.90;80.10;;;;;;5029494;28;20366;-53
2023/08/01 00:22:45;;;;;;;;;;;20.90;80.00;;;;;;5031551;28;20365;-55
2023/08/01 00:25:10;;;;;;;;;;;20.90;79.90;;;;;;5031666;28;19909;-53
2023/08/01 00:27:36;;;;;;;;;;;20.90;79.80;;;;;;5035648;28;19913;-53
2023/08/01 00:30:01;;;;;;;;;;;20.90;79.60;;;;;;5051632;28;19916;-54
2023/08/01 00:32:27;;;;;;;;;;;20.90;79.60;;;;;;5051486;28;19932;-53
2023/08/01 00:34:52;;;;;;;;;;;20.90;79.60;;;;;;5036805;28;19913;-53
2023/08/01 00:37:18;;;;;;;;;;;20.90;79.60;;;;;;5035837;28;19944;-53
2023/08/01 00:39:43;;;;;;;;;;;20.90;79.70;;;;;;5038063;28;19923;-53
2023/08/01 00:42:09;;;;;;;;;;;20.90;79.60;;;;;;5034867;28;19917;-55
2023/08/01 00:44:34;;;;;;;;;;;20.90;79.60;;;;;;5034766;28;19955;-53
2023/08/01 00:46:59;;;;;;;;;;;20.90;79.50;;;;;;5035605;28;19909;-53
2023/08/01 00:49:25;;;;;;;;;;;20.90;79.50;;;;;;5031448;28;19921;-53
2023/08/01 00:51:50;;;;;;;;;;;20.90;79.60;;;;;;5035368;28;19921;-53
2023/08/01 00:54:16;;;;;;;;;;;20.90;79.40;;;;;;5035304;28;19999;-53
2023/08/01 00:56:42;;;;;;;;;;;20.90;79.60;;;;;;5034707;28;20358;-53
2023/08/01 00:59:07;;;;;;;;;;;20.90;79.60;;;;;;5043260;28;19913;-53
2023/08/01 01:01:32;;;;;;;;;;;20.90;79.60;;;;;;5045754;28;19936;-54
2023/08/01 01:03:58;;;;;;;;;;;20.90;79.60;;;;;;5033434;28;19999;-53
2023/08/01 01:06:34;;;;;;;;;;;20.90;79.60;;;;;;5035383;28;19921;-53
2023/08/01 01:08:59;;;;;;;;;;;20.90;79.40;;;;;;5017328;28;19913;-53
2023/08/01 01:11:25;;;;;;;;;;;20.90;79.40;;;;;;5032780;28;19939;-53
2023/08/01 01:13:52;;;;;;;;;;;20.90;79.40;;;;;;5034210;28;19968;-54
2023/08/01 01:16:18;;;;;;;;;;;20.90;79.60;;;;;;5031640;28;20304;-53
2023/08/01 01:18:44;;;;;;;;;;;20.90;79.50;;;;;;5031864;28;19914;-54
2023/08/01 01:21:09;;;;;;;;;;;20.90;79.50;;;;;;5034914;28;19913;-53
2023/08/01 01:23:35;;;;;;;;;;;20.90;79.50;;;;;;5030144;28;19914;-54
2023/08/01 01:26:00;;;;;;;;;;;20.90;79.30;;;;;;5028659;28;20357;-53
2023/08/01 01:28:26;;;;;;;;;;;20.90;79.20;;;;;;5034098;28;20066;-53
2023/08/01 01:30:52;;;;;;;;;;;20.90;79.10;;;;;;5033304;28;19979;-53
2023/08/01 01:33:18;;;;;;;;;;;20.90;79.30;;;;;;5014873;28;19921;-53
2023/08/01 01:35:44;;;;;;;;;;;20.90;79.40;;;;;;5034519;28;19932;-53
2023/08/01 01:38:09;;;;;;;;;;;20.80;79.30;;;;;;5033001;28;19921;-53
2023/08/01 01:40:34;;;;;;;;;;;20.80;79.30;;;;;;5036424;28;19917;-53
2023/08/01 01:43:00;;;;;;;;;;;20.80;79.50;;;;;;5053676;28;19909;-53
2023/08/01 01:45:25;;;;;;;;;;;20.80;79.60;;;;;;5054204;28;19909;-53
2023/08/01 01:47:51;;;;;;;;;;;20.80;79.40;;;;;;5047124;28;19974;-53
2023/08/01 01:50:17;;;;;;;;;;;20.80;79.30;;;;;;5033297;28;19927;-53
2023/08/01 01:52:43;;;;;;;;;;;20.90;79.20;;;;;;5033983;28;20008;-53
2023/08/01 01:55:09;;;;;;;;;;;20.90;79.10;;;;;;5032745;28;19960;-53
2023/08/01 01:57:36;;;;;;;;;;;20.90;79.00;;;;;;5033451;28;19925;-53
2023/08/01 02:00:01;;;;;;;;;;;20.90;79.00;;;;;;5034311;28;20377;-53
2023/08/01 02:02:27;;;;;;;;;;;20.90;79.00;;;;;;5031097;28;19928;-54
2023/08/01 02:04:52;;;;;;;;;;;20.90;79.00;;;;;;5025137;28;19975;-53
2023/08/01 02:07:18;;;;;;;;;;;20.90;79.00;;;;;;5032887;28;19946;-54
2023/08/01 02:09:43;;;;;;;;;;;20.80;78.90;;;;;;5033540;28;19917;-53
2023/08/01 02:12:09;;;;;;;;;;;20.90;78.90;;;;;;5034177;28;19955;-55
2023/08/01 02:14:35;;;;;;;;;;;20.90;79.00;;;;;;5033149;28;19913;-53
2023/08/01 02:17:01;;;;;;;;;;;20.80;78.80;;;;;;5030620;28;19920;-53
2023/08/01 02:19:26;;;;;;;;;;;20.80;78.90;;;;;;5033517;28;19920;-53
2023/08/01 02:21:52;;;;;;;;;;;20.80;78.80;;;;;;5032630;28;19992;-54
2023/08/01 02:24:18;;;;;;;;;;;20.80;78.80;;;;;;5035226;28;19923;-53
2023/08/01 02:26:43;;;;;;;;;;;20.80;78.90;;;;;;5033651;28;19916;-53
2023/08/01 02:29:09;;;;;;;;;;;20.80;79.00;;;;;;5015141;28;19913;-54
2023/08/01 02:31:35;;;;;;;;;;;20.80;78.90;;;;;;5031599;28;19924;-53
2023/08/01 02:34:00;;;;;;;;;;;20.80;79.00;;;;;;5033374;28;20004;-53
2023/08/01 02:36:26;;;;;;;;;;;20.80;79.00;;;;;;5036787;28;19959;-53
2023/08/01 02:38:51;;;;;;;;;;;20.80;79.10;;;;;;5049736;28;19923;-53
2023/08/01 02:41:17;;;;;;;;;;;20.80;79.00;;;;;;5033575;28;19956;-53
2023/08/01 02:43:42;;;;;;;;;;;20.80;78.90;;;;;;5032487;28;19909;-53
2023/08/01 02:46:07;;;;;;;;;;;20.80;78.80;;;;;;5012662;28;20022;-53
2023/08/01 02:48:35;;;;;;;;;;;20.80;78.80;;;;;;5030379;28;19971;-54
2023/08/01 02:51:00;;;;;;;;;;;20.80;78.80;;;;;;5033017;28;19917;-53
2023/08/01 02:53:26;;;;;;;;;;;20.80;79.00;;;;;;5032853;28;20030;-54
2023/08/01 02:55:51;;;;;;;;;;;20.80;78.90;;;;;;5015998;28;20054;-53
2023/08/01 02:58:17;;;;;;;;;;;20.80;79.00;;;;;;5029318;28;19996;-54
2023/08/01 03:00:42;;;;;;;;;;;20.80;79.00;;;;;;5032668;28;19920;-54
2023/08/01 03:03:08;;;;;;;;;;;20.70;78.80;;;;;;5031921;28;19920;-53
2023/08/01 03:05:35;;;;;;;;;;;20.80;78.90;;;;;;5031612;28;19959;-54
2023/08/01 03:08:00;;;;;;;;;;;20.80;78.90;;;;;;5033043;28;19913;-53
2023/08/01 03:10:26;;;;;;;;;;;20.80;79.00;;;;;;5041750;28;20304;-53
2023/08/01 03:12:51;;;;;;;;;;;20.80;79.00;;;;;;5030394;28;19917;-53
2023/08/01 03:15:17;;;;;;;;;;;20.80;78.80;;;;;;5032912;28;19916;-54
2023/08/01 03:17:42;;;;;;;;;;;20.80;79.00;;;;;;5032458;28;19915;-53
2023/08/01 03:20:10;;;;;;;;;;;20.80;79.00;;;;;;5032138;28;20528;-54
2023/08/01 03:22:39;;;;;;;;;;;20.80;78.90;;;;;;5032555;28;19916;-53
2023/08/01 03:25:07;;;;;;;;;;;20.80;79.00;;;;;;5032609;28;19913;-53
2023/08/01 03:27:33;;;;;;;;;;;20.80;79.00;;;;;;5030108;28;20443;-53
2023/08/01 03:29:58;;;;;;;;;;;20.80;78.80;;;;;;5032501;28;19909;-53
2023/08/01 03:32:24;;;;;;;;;;;20.80;79.00;;;;;;5014892;28;19927;-53
2023/08/01 03:34:49;;;;;;;;;;;20.70;78.90;;;;;;5032173;28;20004;-53
2023/08/01 03:37:15;;;;;;;;;;;20.80;79.20;;;;;;5032541;28;20311;-54
2023/08/01 03:39:41;;;;;;;;;;;20.80;79.10;;;;;;5032275;28;19916;-54
2023/08/01 03:42:06;;;;;;;;;;;20.80;79.00;;;;;;5029943;28;20432;-53
2023/08/01 03:44:32;;;;;;;;;;;20.80;78.90;;;;;;5031505;28;19936;-53
2023/08/01 03:46:57;;;;;;;;;;;20.70;78.90;;;;;;5032219;28;19909;-53
2023/08/01 03:49:23;;;;;;;;;;;20.80;78.90;;;;;;5031138;28;20000;-55
2023/08/01 03:51:48;;;;;;;;;;;20.80;78.90;;;;;;5031509;28;19917;-53
2023/08/01 03:54:14;;;;;;;;;;;20.70;78.80;;;;;;5031850;28;19915;-53
2023/08/01 03:56:42;;;;;;;;;;;20.70;78.80;;;;;;5032090;28;20050;-54
2023/08/01 03:59:08;;;;;;;;;;;20.80;79.00;;;;;;5028465;28;19913;-53
2023/08/01 04:01:33;;;;;;;;;;;20.70;78.80;;;;;;5032018;28;20380;-54
2023/08/01 04:03:59;;;;;;;;;;;20.70;78.80;;;;;;5029832;28;19917;-54
2023/08/01 04:06:24;;;;;;;;;;;20.70;78.80;;;;;;5031926;28;19917;-54
2023/08/01 04:08:51;;;;;;;;;;;20.70;78.80;;;;;;5031276;28;19915;-53
2023/08/01 04:11:17;;;;;;;;;;;20.80;78.90;;;;;;5031250;28;20324;-55
2023/08/01 04:13:42;;;;;;;;;;;20.70;78.80;;;;;;5028750;28;19921;-54
2023/08/01 04:16:07;;;;;;;;;;;20.70;79.00;;;;;;5016256;28;19921;-54
2023/08/01 04:18:33;;;;;;;;;;;20.70;78.90;;;;;;5035205;28;19913;-54
2023/08/01 04:20:58;;;;;;;;;;;20.70;78.80;;;;;;5030778;28;19913;-53
2023/08/01 04:23:24;;;;;;;;;;;20.70;79.00;;;;;;5031798;28;19921;-54
2023/08/01 04:25:49;;;;;;;;;;;20.70;78.90;;;;;;5030032;28;20015;-54
2023/08/01 04:28:15;;;;;;;;;;;20.70;78.80;;;;;;5030895;28;19920;-54
2023/08/01 04:30:40;;;;;;;;;;;20.70;78.80;;;;;;5030907;28;19913;-53
2023/08/01 04:33:05;;;;;;;;;;;20.70;78.80;;;;;;5030876;28;19917;-53
2023/08/01 04:35:31;;;;;;;;;;;20.70;79.00;;;;;;5046632;28;20368;-54
2023/08/01 04:37:56;;;;;;;;;;;20.70;78.90;;;;;;5036264;28;20295;-55
2023/08/01 04:40:22;;;;;;;;;;;20.70;79.00;;;;;;5013714;28;19920;-54
2023/08/01 04:42:47;;;;;;;;;;;20.70;79.00;;;;;;5030496;28;19924;-54
2023/08/01 04:45:14;;;;;;;;;;;20.70;79.00;;;;;;5031683;28;20348;-53
2023/08/01 04:47:39;;;;;;;;;;;20.70;79.10;;;;;;5029688;28;20296;-53
2023/08/01 04:50:05;;;;;;;;;;;20.70;78.90;;;;;;5031688;28;19913;-53
2023/08/01 04:52:30;;;;;;;;;;;20.70;78.90;;;;;;5031064;28;19913;-54
2023/08/01 04:54:56;;;;;;;;;;;20.70;78.80;;;;;;5029436;28;19913;-53
2023/08/01 04:57:21;;;;;;;;;;;20.70;79.00;;;;;;5031488;28;19920;-55
2023/08/01 04:59:47;;;;;;;;;;;20.70;78.90;;;;;;5030676;28;19957;-54
2023/08/01 05:02:12;;;;;;;;;;;20.70;78.90;;;;;;5030693;28;19963;-54
2023/08/01 05:04:38;;;;;;;;;;;20.70;78.90;;;;;;5043063;28;19966;-54
2023/08/01 05:07:05;;;;;;;;;;;20.70;78.80;;;;;;5051329;28;19951;-54
2023/08/01 05:09:32;;;;;;;;;;;20.70;78.80;;;;;;5029541;28;19959;-54
2023/08/01 05:11:57;;;;;;;;;;;20.70;78.80;;;;;;5031162;28;19912;-54
2023/08/01 05:14:23;;;;;;;;;;;20.70;78.80;;;;;;5030499;28;20353;-54
2023/08/01 05:16:48;;;;;;;;;;;20.70;78.80;;;;;;5029670;28;20369;-54
2023/08/01 05:19:13;;;;;;;;;;;20.70;78.70;;;;;;5030953;28;20404;-54
2023/08/01 05:21:39;;;;;;;;;;;20.70;78.80;;;;;;5033656;28;20306;-54
2023/08/01 05:24:04;;;;;;;;;;;20.70;78.70;;;;;;5015355;28;19956;-54
2023/08/01 05:26:30;;;;;;;;;;;20.70;78.60;;;;;;5032867;28;19959;-55
2023/08/01 05:28:55;;;;;;;;;;;20.70;78.60;;;;;;5033789;28;19917;-54
2023/08/01 05:31:21;;;;;;;;;;;20.70;78.40;;;;;;5032740;28;19913;-54
2023/08/01 05:33:46;;;;;;;;;;;20.70;78.40;;;;;;5035585;28;19913;-54
2023/08/01 05:36:11;;;;;;;;;;;20.70;78.50;;;;;;5040430;28;19968;-54
2023/08/01 05:38:37;;;;;;;;;;;20.70;78.60;;;;;;5034442;28;19913;-53
2023/08/01 05:41:02;;;;;;;;;;;20.70;78.50;;;;;;5028680;28;19924;-54
2023/08/01 05:43:28;;;;;;;;;;;20.70;78.50;;;;;;5033698;28;19913;-55
2023/08/01 05:45:53;;;;;;;;;;;20.70;78.50;;;;;;5034199;28;20004;-54
2023/08/01 05:48:19;;;;;;;;;;;20.70;78.40;;;;;;5019653;28;19928;-53
2023/08/01 05:50:44;;;;;;;;;;;20.70;78.50;;;;;;5030403;28;20392;-55
2023/08/01 05:53:10;;;;;;;;;;;20.70;78.60;;;;;;5026725;28;19924;-54
2023/08/01 05:55:35;;;;;;;;;;;20.70;78.40;;;;;;5032401;28;19913;-54
2023/08/01 05:58:01;;;;;;;;;;;20.70;78.70;;;;;;5033263;28;20412;-55
2023/08/01 06:00:26;;;;;;;;;;;20.70;78.80;;;;;;5033443;28;20377;-53
2023/08/01 06:02:52;;;;;;;;;;;20.70;78.70;;;;;;5027563;28;20419;-54
2023/08/01 06:05:17;;;;;;;;;;;20.70;78.70;;;;;;5032193;28;19983;-54
2023/08/01 06:07:43;;;;;;;;;;;20.70;78.80;;;;;;5029124;28;19913;-54
2023/08/01 06:10:08;;;;;;;;;;;20.70;78.70;;;;;;5032391;28;19913;-54
2023/08/01 06:12:34;;;;;;;;;;;20.70;78.60;;;;;;5033584;28;19929;-54
2023/08/01 06:14:59;;;;;;;;;;;20.70;78.60;;;;;;5031146;28;19917;-54
2023/08/01 06:17:24;;;;;;;;;;;20.70;78.60;;;;;;5033854;28;19924;-54
2023/08/01 06:19:51;;;;;;;;;;;20.70;78.50;;;;;;5031736;28;19913;-54
2023/08/01 06:22:16;;;;;;;;;;;20.70;78.70;;;;;;5032592;28;19951;-54
2023/08/01 06:24:42;;;;;;;;;;;20.70;78.50;;;;;;5033374;28;19956;-53
2023/08/01 06:27:07;;;;;;;;;;;20.70;78.80;;;;;;5033762;28;19909;-54
2023/08/01 06:29:33;;;;;;;;;;;20.70;78.80;;;;;;5034520;28;20280;-54
2023/08/01 06:31:58;;;;;;;;;;;20.60;78.60;;;;;;5052928;28;19913;-54
2023/08/01 06:34:24;;;;;;;;;;;20.70;78.80;;;;;;5046410;28;19927;-54
2023/08/01 06:36:50;;;;;;;;;;;20.70;78.70;;;;;;5031202;28;20019;-54
2023/08/01 06:39:15;;;;;;;;;;;20.70;78.50;;;;;;5031907;28;20317;-54
2023/08/01 06:41:41;;;;;;;;;;;20.70;78.60;;;;;;5034399;28;19932;-54
2023/08/01 06:44:06;;;;;;;;;;;20.70;78.60;;;;;;5034924;28;19917;-53
2023/08/01 06:46:32;;;;;;;;;;;20.70;78.40;;;;;;5033461;28;19917;-54
2023/08/01 06:48:57;;;;;;;;;;;20.70;78.50;;;;;;5031328;28;20003;-54
2023/08/01 06:51:23;;;;;;;;;;;20.70;78.30;;;;;;5020528;28;19928;-55
2023/08/01 06:53:48;;;;;;;;;;;20.70;78.30;;;;;;5030468;28;19959;-54
2023/08/01 06:56:13;;;;;;;;;;;20.70;78.40;;;;;;5027381;28;19925;-55
2023/08/01 06:58:39;;;;;;;;;;;20.70;78.30;;;;;;5023700;28;19917;-54
2023/08/01 07:01:04;;;;;;;;;;;20.70;78.40;;;;;;5029854;28;19963;-54
2023/08/01 07:03:30;;;;;;;;;;;20.70;78.40;;;;;;5023850;28;19913;-55
2023/08/01 07:05:55;;;;;;;;;;;20.70;78.30;;;;;;5030768;28;19955;-54
2023/08/01 07:08:21;;;;;;;;;;;20.70;78.30;;;;;;5029433;28;19920;-54
2023/08/01 07:10:47;;;;;;;;;;;20.70;78.20;;;;;;5030517;28;19940;-54
2023/08/01 07:13:12;;;;;;;;;;;20.70;78.30;;;;;;5029394;28;19944;-53
2023/08/01 07:15:37;;;;;;;;;;;20.70;78.30;;;;;;5010266;28;19928;-55
2023/08/01 07:18:03;;;;;;;;;;;20.70;78.20;;;;;;5029868;28;20043;-54
2023/08/01 07:20:28;;;;;;;;;;;20.70;78.30;;;;;;5021064;28;20030;-53
2023/08/01 07:22:54;;;;;;;;;;;20.70;78.20;;;;;;5028398;28;20409;-54
2023/08/01 07:25:19;;;;;;;;;;;20.70;78.10;;;;;;5032161;28;20330;-54
2023/08/01 07:27:45;;;;;;;;;;;20.70;78.10;;;;;;5029969;28;19917;-53
2023/08/01 07:30:11;;;;;;;;;;;20.70;78.20;;;;;;5028516;28;19928;-53
2023/08/01 07:32:39;;;;;;;;;;;20.70;78.10;;;;;;5030591;28;19917;-54
2023/08/01 07:35:05;;;;;;;;;;;20.70;78.10;;;;;;5050611;28;19920;-53
2023/08/01 07:37:32;;;;;;;;;;;20.70;78.10;;;;;;5027564;28;19917;-53
2023/08/01 07:39:58;;;;;;;;;;;20.70;78.00;;;;;;5029261;28;19936;-53
2023/08/01 07:42:23;;;;;;;;;;;20.70;78.00;;;;;;5031131;28;20376;-54
2023/08/01 07:44:49;;;;;;;;;;;20.70;77.90;;;;;;5027745;28;20004;-54
2023/08/01 07:47:14;;;;;;;;;;;20.70;77.90;;;;;;5029644;28;20016;-53
2023/08/01 07:49:40;;;;;;;;;;;20.60;77.80;;;;;;5029177;28;19927;-54
2023/08/01 07:52:05;;;;;;;;;;;20.70;78.20;;;;;;5027258;28;19957;-53
2023/08/01 07:54:31;;;;;;;;;;;20.60;78.00;;;;;;5031583;28;19924;-54
2023/08/01 07:56:56;;;;;;;;;;;20.70;78.30;;;;;;5031713;28;20370;-54
2023/08/01 07:59:21;;;;;;;;;;;20.70;77.90;;;;;;5027181;28;20409;-53
2023/08/01 08:01:48;;;;;;;;;;;20.70;77.80;;;;;;5027635;28;20400;-53
2023/08/01 08:04:14;;;;;;;;;;;20.70;78.00;;;;;;5028212;28;19953;-53
2023/08/01 08:06:40;;;;;;;;;;;20.60;77.90;;;;;;5026320;28;19923;-54
2023/08/01 08:09:05;;;;;;;;;;;20.70;78.20;;;;;;5030370;28;20359;-53
2023/08/01 08:11:30;;;;;;;;;;;20.70;78.10;;;;;;5029168;28;19991;-55
2023/08/01 08:13:56;;;;;;;;;;;20.70;78.10;;;;;;5030798;28;19913;-53
2023/08/01 08:16:21;;;;;;;;;;;20.70;78.00;;;;;;5027265;28;19928;-53
2023/08/01 08:18:47;;;;;;;;;;;20.70;77.90;;;;;;5027806;28;19917;-54
2023/08/01 08:21:12;;;;;;;;;;;20.70;78.00;;;;;;5028541;28;19928;-55
2023/08/01 08:23:38;;;;;;;;;;;20.70;77.80;;;;;;5031374;28;19920;-53
2023/08/01 08:26:04;;;;;;;;;;;20.70;77.90;;;;;;5025998;28;20296;-53
2023/08/01 08:28:30;;;;;;;;;;;20.70;77.80;;;;;;5027433;28;19971;-54
2023/08/01 08:30:56;;;;;;;;;;;20.70;78.10;;;;;;5026036;28;19924;-54
2023/08/01 08:33:21;;;;;;;;;;;20.70;78.10;;;;;;5029956;28;19914;-54
2023/08/01 08:35:47;;;;;;;;;;;20.70;77.90;;;;;;5031167;28;19920;-54
2023/08/01 08:38:12;;;;;;;;;;;20.70;78.00;;;;;;5030574;28;19960;-54
2023/08/01 08:40:41;;;;;;;;;;;20.70;77.70;;;;;;5029612;28;19920;-54
2023/08/01 08:43:06;;;;;;;;;;;20.70;77.90;;;;;;5030222;28;19913;-54
2023/08/01 08:45:33;;;;;;;;;;;20.70;77.70;;;;;;5019410;28;19963;-54
2023/08/01 08:47:59;;;;;;;;;;;20.70;77.70;;;;;;5030625;28;19927;-54
2023/08/01 08:50:25;;;;;;;;;;;20.70;77.50;;;;;;5030810;28;20012;-55
2023/08/01 08:52:50;;;;;;;;;;;20.70;77.50;;;;;;5025546;28;20436;-55
2023/08/01 08:55:16;;;;;;;;;;;20.70;77.60;;;;;;5030087;28;19913;-54
2023/08/01 08:57:42;;;;;;;;;;;20.70;77.60;;;;;;5033192;28;19929;-54
2023/08/01 09:00:07;;;;;;;;;;;20.70;77.50;;;;;;5034668;28;19939;-54
2023/08/01 09:02:33;;;;;;;;;;;20.70;77.50;;;;;;5016837;28;20292;-55
2023/08/01 09:04:59;;;;;;;;;;;20.80;77.80;;;;;;5034872;28;19913;-54
2023/08/01 09:07:24;;;;;;;;;;;20.80;77.80;;;;;;5034443;28;20012;-54
2023/08/01 09:09:50;;;;;;;;;;;20.80;77.60;;;;;;5021802;28;19917;-54
2023/08/01 09:12:15;;;;;;;;;;;20.80;78.10;;;;;;5031829;28;19913;-54
2023/08/01 09:14:41;;;;;;;;;;;20.80;77.40;;;;;;5031263;28;19913;-54
2023/08/01 09:17:07;;;;;;;;;;;20.80;77.30;;;;;;5033458;28;20397;-54
2023/08/01 09:19:33;;;;;;;;;;;20.80;77.20;;;;;;5034342;28;20289;-55
2023/08/01 09:21:58;;;;;;;;;;;20.80;77.20;;;;;;5034514;28;19909;-53
2023/08/01 09:24:24;;;;;;;;;;;20.80;77.30;;;;;;5032225;28;20412;-53
2023/08/01 09:26:49;;;;;;;;;;;20.80;77.20;;;;;;5034266;28;20377;-54
2023/08/01 09:29:17;;;;;;;;;;;20.80;77.30;;;;;;5030703;28;20272;-54
2023/08/01 09:31:43;;;;;;;;;;;20.70;77.30;;;;;;5033585;28;19925;-54
2023/08/01 09:34:18;;;;;;;;;;;20.70;77.40;;;;;;5032330;28;19947;-53
2023/08/01 09:36:44;;;;;;;;;;;20.70;77.30;;;;;;5018954;28;19989;-53
2023/08/01 09:39:09;;;;;;;;;;;20.80;77.40;;;;;;5034078;28;19964;-54
2023/08/01 09:41:34;;;;;;;;;;;20.80;77.40;;;;;;5031961;28;19912;-53
2023/08/01 09:44:00;;;;;;;;;;;20.70;77.40;;;;;;5036014;28;19937;-54
2023/08/01 09:46:25;;;;;;;;;;;20.80;77.40;;;;;;5031568;28;19914;-54
2023/08/01 09:48:51;;;;;;;;;;;20.80;77.40;;;;;;5014612;28;19928;-55
2023/08/01 09:51:17;;;;;;;;;;;20.80;77.60;;;;;;5033957;28;19913;-54
2023/08/01 09:53:49;;;;;;;;;;;20.80;77.90;;;;;;5028717;28;19921;-55
2023/08/01 09:56:16;;;;;;;;;;;20.90;77.80;;;;;;5033332;28;20575;-54
2023/08/01 09:58:42;;;;;;;;;;;20.90;77.40;;;;;;5014024;28;19924;-54
2023/08/01 10:01:07;;;;;;;;;;;20.90;77.60;;;;;;5033624;28;19921;-54
2023/08/01 10:03:33;;;;;;;;;;;21.00;77.60;;;;;;5033279;28;19967;-55
2023/08/01 10:05:58;;;;;;;;;;;21.00;77.40;;;;;;5033709;28;19909;-55
2023/08/01 10:08:24;;;;;;;;;;;21.00;77.30;;;;;;5041347;28;19913;-55
2023/08/01 10:10:49;;;;;;;;;;;21.10;78.00;;;;;;5023670;28;19925;-54
2023/08/01 10:13:15;;;;;;;;;;;21.00;77.40;;;;;;5013781;28;20379;-55
2023/08/01 10:15:40;;;;;;;;;;;21.00;77.40;;;;;;5032064;28;19949;-55
2023/08/01 10:18:06;;;;;;;;;;;21.00;77.50;;;;;;5014529;28;20000;-54
2023/08/01 10:20:31;;;;;;;;;;;21.10;77.50;;;;;;5030651;28;19917;-54
2023/08/01 10:22:56;;;;;;;;;;;21.10;77.40;;;;;;5030515;28;20393;-54
2023/08/01 10:25:22;;;;;;;;;;;21.20;77.30;;;;;;5031598;28;19993;-54
2023/08/01 10:28:00;;;;;;;;;;;21.20;77.10;;;;;;5032390;28;19916;-54
2023/08/01 10:30:26;;;;;;;;;;;21.20;76.80;;;;;;5033115;28;19927;-54
2023/08/01 10:32:53;;;;;;;;;;;21.10;76.10;;;;;;5032737;28;19917;-54
2023/08/01 10:35:19;;;;;;;;;;;21.00;76.30;;;;;;5014175;28;20036;-55
2023/08/01 10:37:47;;;;;;;;;;;21.00;76.60;;;;;;5031551;28;20008;-54
2023/08/01 10:40:12;;;;;;;;;;;21.00;76.40;;;;;;5033357;28;19913;-54
2023/08/01 10:42:44;;;;;;;;;;;21.10;76.10;;;;;;5047346;28;19909;-54
2023/08/01 10:45:20;;;;;;;;;;;21.10;75.60;;;;;;5020670;28;19917;-54
2023/08/01 10:47:45;;;;;;;;;;;21.10;75.70;;;;;;5032287;28;20008;-54
2023/08/01 10:50:14;;;;;;;;;;;21.10;75.50;;;;;;5032546;28;19909;-55
2023/08/01 10:52:40;;;;;;;;;;;21.10;75.40;;;;;;5032436;28;19917;-54
2023/08/01 10:55:05;;;;;;;;;;;21.00;75.20;;;;;;5030657;28;20074;-54
2023/08/01 10:57:31;;;;;;;;;;;21.00;74.90;;;;;;5029583;28;19936;-54
2023/08/01 10:59:57;;;;;;;;;;;21.00;75.20;;;;;;5031597;28;19920;-55
2023/08/01 11:02:23;;;;;;;;;;;20.90;75.20;;;;;;5032676;28;20004;-54
2023/08/01 11:04:58;;;;;;;;;;;20.90;75.40;;;;;;5032193;28;19913;-54
2023/08/01 11:07:23;;;;;;;;;;;20.90;75.50;;;;;;5032058;28;20396;-54
2023/08/01 11:09:49;;;;;;;;;;;21.00;75.80;;;;;;5029480;28;20013;-54
2023/08/01 11:12:14;;;;;;;;;;;21.00;75.90;;;;;;5027917;28;20305;-55
2023/08/01 11:14:40;;;;;;;;;;;21.00;75.80;;;;;;5027895;28;20301;-53
2023/08/01 11:17:05;;;;;;;;;;;21.00;75.80;;;;;;5025222;28;19960;-54
2023/08/01 11:19:30;;;;;;;;;;;21.00;75.90;;;;;;5029236;28;19913;-54
2023/08/01 11:21:56;;;;;;;;;;;21.00;75.80;;;;;;5032181;28;19909;-54
2023/08/01 11:24:22;;;;;;;;;;;21.00;75.60;;;;;;5028025;28;19953;-54
2023/08/01 11:26:48;;;;;;;;;;;21.00;75.80;;;;;;5030232;28;19913;-54
2023/08/01 11:29:13;;;;;;;;;;;20.90;75.30;;;;;;5031037;28;19925;-54
2023/08/01 11:31:39;;;;;;;;;;;20.90;75.40;;;;;;5029702;28;20277;-54
2023/08/01 11:34:05;;;;;;;;;;;20.90;75.50;;;;;;5031750;28;19913;-54
2023/08/01 11:36:30;;;;;;;;;;;21.00;75.50;;;;;;5030304;28;19941;-54
2023/08/01 11:38:57;;;;;;;;;;;20.90;75.50;;;;;;5015547;28;20027;-53
2023/08/01 11:41:23;;;;;;;;;;;20.90;75.40;;;;;;5036679;28;20292;-55
2023/08/01 11:43:48;;;;;;;;;;;20.90;75.60;;;;;;5029271;28;19913;-54
2023/08/01 11:46:13;;;;;;;;;;;20.90;75.40;;;;;;5031724;28;20319;-54
2023/08/01 11:48:39;;;;;;;;;;;20.90;76.20;;;;;;5032032;28;19925;-54
2023/08/01 11:51:04;;;;;;;;;;;20.90;75.60;;;;;;5028751;28;20016;-54
2023/08/01 11:53:30;;;;;;;;;;;20.90;75.60;;;;;;5030263;28;19920;-53
2023/08/01 11:55:56;;;;;;;;;;;21.00;75.80;;;;;;5029937;28;19917;-54
2023/08/01 11:58:51;;;;;;;;;;;20.90;75.40;;;;;;5029009;28;20387;-55
2023/08/01 12:01:16;;;;;;;;;;;21.00;75.70;;;;;;5025618;28;19914;-54
2023/08/01 12:03:43;;;;;;;;;;;21.00;76.00;;;;;;5031218;28;19920;-54
2023/08/01 12:06:08;;;;;;;;;;;21.00;76.00;;;;;;5031069;28;19996;-55
2023/08/01 12:08:34;;;;;;;;;;;21.00;76.10;;;;;;5026908;28;19920;-55
2023/08/01 12:10:59;;;;;;;;;;;21.00;76.00;;;;;;5031163;28;19964;-54
2023/08/01 12:13:25;;;;;;;;;;;21.10;76.10;;;;;;5027264;28;19921;-54
2023/08/01 12:15:50;;;;;;;;;;;21.20;76.10;;;;;;5010676;28;19917;-54
2023/08/01 12:18:26;;;;;;;;;;;21.20;75.90;;;;;;5030891;28;19913;-55
2023/08/01 12:20:52;;;;;;;;;;;21.30;75.80;;;;;;5025956;28;19967;-55
2023/08/01 12:23:17;;;;;;;;;;;21.20;75.60;;;;;;5028305;28;20007;-54
2023/08/01 12:25:43;;;;;;;;;;;21.30;75.70;;;;;;5025367;28;19921;-54
2023/08/01 12:28:08;;;;;;;;;;;21.20;75.70;;;;;;5025038;28;19940;-54
2023/08/01 12:30:34;;;;;;;;;;;21.20;75.70;;;;;;5028962;28;20039;-54
2023/08/01 12:33:00;;;;;;;;;;;21.20;75.80;;;;;;5031408;28;20014;-54
2023/08/01 12:35:26;;;;;;;;;;;21.30;75.90;;;;;;5031539;28;19924;-54
2023/08/01 12:37:52;;;;;;;;;;;21.20;75.80;;;;;;5030187;28;19917;-54
2023/08/01 12:40:18;;;;;;;;;;;21.30;75.80;;;;;;5034158;28;19913;-54
2023/08/01 12:42:43;;;;;;;;;;;21.20;75.80;;;;;;5030945;28;20408;-54
2023/08/01 12:45:09;;;;;;;;;;;21.20;75.90;;;;;;5034608;28;20391;-54
2023/08/01 12:47:34;;;;;;;;;;;21.20;75.80;;;;;;5029563;28;20797;-55
2023/08/01 12:50:00;;;;;;;;;;;21.20;75.90;;;;;;5033885;28;19913;-54
2023/08/01 12:52:25;;;;;;;;;;;21.10;76.60;;;;;;5039797;28;19913;-54
2023/08/01 12:54:51;;;;;;;;;;;21.10;75.80;;;;;;4997388;28;19999;-55
2023/08/01 12:57:16;;;;;;;;;;;21.10;76.00;;;;;;5030740;28;19920;-54
2023/08/01 12:59:42;;;;;;;;;;;21.10;76.00;;;;;;5029713;28;19914;-54
2023/08/01 13:02:08;;;;;;;;;;;21.10;76.10;;;;;;5029901;28;19913;-54
2023/08/01 13:04:34;;;;;;;;;;;21.10;76.10;;;;;;5030662;28;19928;-55
2023/08/01 13:06:59;;;;;;;;;;;21.10;76.10;;;;;;5023870;28;19921;-55
2023/08/01 13:09:25;;;;;;;;;;;21.10;76.10;;;;;;5044348;28;19921;-54
2023/08/01 13:11:50;;;;;;;;;;;21.10;76.10;;;;;;5031080;28;19929;-54
2023/08/01 13:14:16;;;;;;;;;;;21.20;76.40;;;;;;5032416;28;19919;-54
2023/08/01 13:16:41;;;;;;;;;;;21.20;76.30;;;;;;5032531;28;19919;-54
2023/08/01 13:19:07;;;;;;;;;;;21.20;76.40;;;;;;5033239;28;20389;-55
2023/08/01 13:21:34;;;;;;;;;;;21.20;76.30;;;;;;5032531;28;20484;-54
2023/08/01 13:23:59;;;;;;;;;;;21.20;76.30;;;;;;5029674;28;19917;-54
2023/08/01 13:26:25;;;;;;;;;;;21.20;76.40;;;;;;5031655;28;19967;-55
2023/08/01 13:28:50;;;;;;;;;;;21.20;76.40;;;;;;5041614;28;19953;-53
2023/08/01 13:31:16;;;;;;;;;;;21.20;76.50;;;;;;5029898;28;19917;-54
2023/08/01 13:33:41;;;;;;;;;;;21.20;76.50;;;;;;5030876;28;19920;-54
2023/08/01 13:36:07;;;;;;;;;;;21.20;76.50;;;;;;5039986;28;19920;-54
2023/08/01 13:38:32;;;;;;;;;;;21.20;76.60;;;;;;5046971;28;19913;-53
2023/08/01 13:41:01;;;;;;;;;;;21.20;76.60;;;;;;5035120;28;20377;-54
2023/08/01 13:43:26;;;;;;;;;;;21.20;76.50;;;;;;5032918;28;19909;-54
2023/08/01 13:45:52;;;;;;;;;;;21.10;76.60;;;;;;5026999;28;22542;-54
2023/08/01 13:48:18;;;;;;;;;;;21.10;76.40;;;;;;5031092;28;20385;-53
2023/08/01 13:50:43;;;;;;;;;;;21.20;76.70;;;;;;5037822;28;19974;-54
2023/08/01 13:53:11;;;;;;;;;;;21.10;76.70;;;;;;5034290;28;20376;-54
2023/08/01 13:55:37;;;;;;;;;;;21.20;76.60;;;;;;5028314;28;20071;-54
2023/08/01 13:58:03;;;;;;;;;;;21.20;76.80;;;;;;5034589;28;19999;-54
2023/08/01 14:00:28;;;;;;;;;;;21.20;76.80;;;;;;5029945;28;19914;-54
2023/08/01 14:02:54;;;;;;;;;;;21.30;76.80;;;;;;5031319;28;19913;-54
2023/08/01 14:05:19;;;;;;;;;;;21.30;76.60;;;;;;5030975;28;19917;-54
2023/08/01 14:07:45;;;;;;;;;;;21.30;76.50;;;;;;5032940;28;19913;-54